Meteo Giornale » Osservazioni meteo Italia » Bologna-Borgo Panigale

ore: 08:20 - Osservazioni Meteo Bologna-Borgo Panigale
Lat. 44° 32' N Lon. 11° 18' E Alt. 36 metri s.l.m.

sereno Europe/Rome

2 °C

Sereno

Temp. 24 Ore

2 °C

14 °C

Sud-Est

7.4 Km/h

Dew point 1 °C

Umidità 93 %

Visibilità  10 Km

Il sole sorge alle ore 07:44

Il sole tramonta alle ore 17:04

Data e Ora Cielo e Fenomeni T °C DP °C Um. % Pres. hPa Vis. km Vento km/h
Oggi h: 08:20 sereno Sereno 2 1 93 1015 10 SE 7.4
Oggi h: 07:50 nuvoloso Nuvoloso 3 1 86 1015 10 N 3.7
Oggi h: 07:20 nuvoloso Nuvoloso 3 1 86 1015 10 N 3.7
Oggi h: 06:50 poco_nuvoloso Poco Nuvoloso 3 1 86 1015 10 N 5.5
Oggi h: 06:20 nuvoloso Nuvoloso 3 1 86 1015 10 O/SO 7.4
Oggi h: 05:50 nuvoloso Nuvoloso 4 1 80 1015 10 N 5.5
Oggi h: 05:20 nuvoloso Nuvoloso 4 1 80 1015 10 N 5.5
Oggi h: 04:50 nuvoloso Nuvoloso 5 2 80 1015 10 N 5.5
Oggi h: 04:20 nuvoloso Nuvoloso 6 3 81 1016 10 N 3.7
Oggi h: 03:50 nuvoloso Nuvoloso 5 2 80 1016 10 N 5.5
Oggi h: 03:20 nuvoloso Nuvoloso 5 2 80 1016 10 N 1.8
Oggi h: 02:50 nuvoloso Nuvoloso 5 3 86 1017 10 E/SE 7.4
Oggi h: 02:20 nuvoloso Nuvoloso 5 3 86 1017 10 N 5.5
Oggi h: 01:50 molto_nuvoloso Molto Nuvoloso 5 2 80 1017 10 N 1.8
Oggi h: 01:20 nuvoloso Nuvoloso 4 1 80 1017 10 N 1.8
Oggi h: 00:50 nuvoloso Nuvoloso 4 1 80 1018 10 N 1.8
Oggi h: 00:20 nuvoloso Nuvoloso 3 0 80 1018 10 N 1.8
Ieri h: 23:50 nuvoloso Nuvoloso 3 0 80 1018 10 N 3.7
Ieri h: 22:50 sereno Sereno 2 -0 86 1018 10 N 1.8
Ieri h: 22:20 sereno Sereno 2 0 86 1018 10 N 5.5
Ieri h: 21:50 sereno Sereno 3 1 86 1018 10 N 1.8
Ieri h: 21:20 sereno Sereno 3 1 86 1018 10 N 1.8
Ieri h: 20:50 sereno Sereno 3 -1 74 1018 10 N 1.8
Ieri h: 20:20 sereno Sereno 4 0 75 1018 10 N 1.8
Ieri h: 19:50 sereno Sereno 6 1 70 1018 10 N 3.7
Ieri h: 19:20 sereno Sereno 6 2 75 1018 10 N 3.7
Ieri h: 18:50 sereno Sereno 9 3 66 1018 10 N 1.8
Ieri h: 18:20 sereno Sereno 7 2 70 1018 10 N 3.7
Ieri h: 17:50 sereno Sereno 8 2 65 1018 10 N 3.7
Ieri h: 17:20 sereno Sereno 10 1 53 1018 10 N 1.8
Ieri h: 16:50 sereno Sereno 12 2 50 1018 10 N 5.5
Ieri h: 16:20 sereno Sereno 13 2 47 1018 10 N/NE 7.4
Ieri h: 15:50 sereno Sereno 13 3 50 1018 10 N 5.5
Ieri h: 15:20 sereno Sereno 14 2 44 1018 10 N 7.4
Ieri h: 14:50 sereno Sereno 14 2 44 1018 10 N 9.3
Ieri h: 14:20 sereno Sereno 14 2 44 1018 10 N 7.4
Ieri h: 13:50 sereno Sereno 14 2 44 1018 10 N 11.1
Ieri h: 13:20 sereno Sereno 14 0 38 1019 10 N 9.3
Ieri h: 12:50 sereno Sereno 13 1 43 1019 10 N 9.3
Ieri h: 12:20 sereno Sereno 12 1 46 1019 10 N/NO 7.4
Ieri h: 11:50 sereno Sereno 11 1 50 1020 10 N 5.5
Ieri h: 11:20 sereno Sereno 10 1 53 1020 10 N 5.5
Ieri h: 10:20 sereno Sereno 10 1 53 1020 10 N 3.7
Ieri h: 09:50 sereno Sereno 8 0 56 1020 10 SO 7.4
Ieri h: 09:20 sereno Sereno 7 0 60 1020 10 N 5.5
Ieri h: 08:50 sereno Sereno 5 -1 65 1020 10 N 3.7
Ieri h: 08:20 sereno Sereno 4 -1 69 1019 10 S/SO 14.8
Ieri h: 07:50 sereno Sereno 4 -1 69 1019 10 S/SO 16.7